Map

Track Data

SID SEASON NUMBER BASIN SUBBASIN NAME ISO_TIME NATURE LAT LON WMO_WIND WMO_PRES WMO_AGENCY TRACK_TYPE DIST2LAND LANDFALL IFLAG USA_AGENCY USA_ATCF_ID USA_LAT USA_LON USA_RECORD USA_STATUS USA_WIND USA_PRES USA_SSHS USA_R34_NE USA_R34_SE USA_R34_SW USA_R34_NW USA_R50_NE USA_R50_SE USA_R50_SW USA_R50_NW USA_R64_NE USA_R64_SE USA_R64_SW USA_R64_NW USA_POCI USA_ROCI USA_RMW USA_EYE TOKYO_LAT TOKYO_LON TOKYO_GRADE TOKYO_WIND TOKYO_PRES TOKYO_R50_DIR TOKYO_R50_LONG TOKYO_R50_SHORT TOKYO_R30_DIR TOKYO_R30_LONG TOKYO_R30_SHORT TOKYO_LAND CMA_LAT CMA_LON CMA_CAT CMA_WIND CMA_PRES HKO_LAT HKO_LON HKO_CAT HKO_WIND HKO_PRES NEWDELHI_LAT NEWDELHI_LON NEWDELHI_GRADE NEWDELHI_WIND NEWDELHI_PRES NEWDELHI_CI NEWDELHI_DP NEWDELHI_POCI REUNION_LAT REUNION_LON REUNION_TYPE REUNION_WIND REUNION_PRES REUNION_TNUM REUNION_CI REUNION_RMW REUNION_R34_NE REUNION_R34_SE REUNION_R34_SW REUNION_R34_NW REUNION_R50_NE REUNION_R50_SE REUNION_R50_SW REUNION_R50_NW REUNION_R64_NE REUNION_R64_SE REUNION_R64_SW REUNION_R64_NW BOM_LAT BOM_LON BOM_TYPE BOM_WIND BOM_PRES BOM_TNUM BOM_CI BOM_RMW BOM_R34_NE BOM_R34_SE BOM_R34_SW BOM_R34_NW BOM_R50_NE BOM_R50_SE BOM_R50_SW BOM_R50_NW BOM_R64_NE BOM_R64_SE BOM_R64_SW BOM_R64_NW BOM_ROCI BOM_POCI BOM_EYE BOM_POS_METHOD BOM_PRES_METHOD NADI_LAT NADI_LON NADI_CAT NADI_WIND NADI_PRES WELLINGTON_LAT WELLINGTON_LON WELLINGTON_WIND WELLINGTON_PRES DS824_LAT DS824_LON DS824_STAGE DS824_WIND DS824_PRES TD9636_LAT TD9636_LON TD9636_STAGE TD9636_WIND TD9636_PRES TD9635_LAT TD9635_LON TD9635_WIND TD9635_PRES TD9635_ROCI NEUMANN_LAT NEUMANN_LON NEUMANN_CLASS NEUMANN_WIND NEUMANN_PRES MLC_LAT MLC_LON MLC_CLASS MLC_WIND MLC_PRES USA_GUST BOM_GUST BOM_GUST_PER REUNION_GUST REUNION_GUST_PER USA_SEAHGT USA_SEARAD_NE USA_SEARAD_SE USA_SEARAD_SW USA_SEARAD_NW STORM_SPEED STORM_DIR
1952209N22087 1952 45 NI BB NOT_NAMED 1952-07-26 18:00:00 TS 22.0000 86.8000 main 0 0 O________O____ jtwc_io IO061952 22.0000 86.8000 -1 22.0000 86.8000 TC 1 308
1952209N22087 1952 45 NI BB NOT_NAMED 1952-07-26 21:00:00 TS 22.0425 86.7375 main 0 0 P________P____ IO061952 22.0425 86.7375 -1 22.0425 86.7375 TC 2 299
1952209N22087 1952 45 NI BB NOT_NAMED 1952-07-27 00:00:00 TS 22.1000 86.6000 main 0 0 O________O____ jtwc_io IO061952 22.1000 86.6000 -1 22.1000 86.6000 TC 25 4 291
1952209N22087 1952 45 NI BB NOT_NAMED 1952-07-27 03:00:00 TS 22.1867 86.3333 main 0 0 P________PO___ IO061952 22.1850 86.3375 -1 22.1850 86.3375 TC 25 22.2000 86.3000 1 6 290
1952209N22087 1952 45 NI BB NOT_NAMED 1952-07-27 06:00:00 TS 22.3029 85.9904 main 0 0 O________OP___ jtwc_io IO061952 22.3000 86.0000 -1 22.3000 86.0000 TC 25 22.3146 85.9518 1 7 292
1952209N22087 1952 45 NI BB NOT_NAMED 1952-07-27 09:00:00 TS 22.4454 85.6426 main 0 0 P________PP___ IO061952 22.4500 85.6576 -1 22.4500 85.6576 TC 25 22.4331 85.6027 1 7 294
1952209N22087 1952 45 NI BB NOT_NAMED 1952-07-27 12:00:00 TS 22.5867 85.2841 main 0 0 O________OP___ jtwc_io IO061952 22.6000 85.3000 -1 22.6000 85.3000 TC 25 22.5600 85.2522 1 7 291
1952209N22087 1952 45 NI BB NOT_NAMED 1952-07-27 15:00:00 TS 22.6949 84.9332 main 0 0 P________PO___ IO061952 22.6924 84.9498 -1 22.6924 84.9498 TC 25 22.7000 84.9000 1 7 290
1952209N22087 1952 45 NI BB NOT_NAMED 1952-07-27 18:00:00 TS 22.8183 84.5820 main 0 0 O________OP___ jtwc_io IO061952 22.8000 84.6000 -1 22.8000 84.6000 TC 25 22.8548 84.5461 1 7 296
1952209N22087 1952 45 NI BB NOT_NAMED 1952-07-27 21:00:00 TS 23.0049 84.2310 main 0 0 P________PP___ IO061952 22.9999 84.2501 -1 22.9999 84.2501 TC 25 23.0148 84.1927 1 7 300
1952209N22087 1952 45 NI BB NOT_NAMED 1952-07-28 00:00:00 TS 23.1891 83.8810 main 0 0 O________OP___ jtwc_io IO061952 23.2000 83.9000 -1 23.2000 83.9000 TC 25 23.1673 83.8430 1 7 296
1952209N22087 1952 45 NI BB NOT_NAMED 1952-07-28 03:00:00 TS 23.3149 83.5333 main 0 0 P________PO___ IO061952 23.3224 83.5499 -1 23.3224 83.5499 TC 25 23.3000 83.5000 1 7 288
1952209N22087 1952 45 NI BB NOT_NAMED 1952-07-28 06:00:00 TS 23.4002 83.1865 main 0 0 O________OP___ jtwc_io IO061952 23.4000 83.2000 -1 23.4000 83.2000 TC 25 23.4005 83.1594 1 7 283
1952209N22087 1952 45 NI BB NOT_NAMED 1952-07-28 09:00:00 TS 23.4599 82.8373 main 0 0 P________PP___ IO061952 23.4500 82.8424 -1 23.4500 82.8424 TC 25 23.4798 82.8271 1 6 280
1952209N22087 1952 45 NI BB NOT_NAMED 1952-07-28 12:00:00 TS 23.5147 82.5021 main 0 0 O________OP___ jtwc_io IO061952 23.5000 82.5000 -1 23.5000 82.5000 TC 25 23.5442 82.5063 1 6 283
1952209N22087 1952 45 NI BB NOT_NAMED 1952-07-28 15:00:00 TS 23.6000 82.1900 main 0 0 P________PO___ IO061952 23.5999 82.1851 -1 23.5999 82.1851 TC 25 23.6000 82.2000 1 6 288
1952209N22087 1952 45 NI BB NOT_NAMED 1952-07-28 18:00:00 TS 23.6869 81.9089 main 0 0 O________OP___ jtwc_io IO061952 23.7000 81.9000 -1 23.7000 81.9000 TC 25 23.6607 81.9267 1 5 287
1952209N22087 1952 45 NI BB NOT_NAMED 1952-07-28 21:00:00 TS 23.7480 81.6549 main 0 0 P________PP___ IO061952 23.7649 81.6500 -1 23.7649 81.6500 TC 25 23.7143 81.6648 1 5 282
1952209N22087 1952 45 NI BB NOT_NAMED 1952-07-29 00:00:00 TS 23.7869 81.3985 main 0 0 O________OP___ jtwc_io IO061952 23.8000 81.4000 -1 23.8000 81.4000 TC 25 23.7607 81.3955 1 5 277
1952209N22087 1952 45 NI BB NOT_NAMED 1952-07-29 03:00:00 TS 23.8049 81.1150 main 0 0 P________PO___ IO061952 23.8074 81.1225 -1 23.8074 81.1225 TC 25 23.8000 81.1000 1 6 272
1952209N22087 1952 45 NI BB NOT_NAMED 1952-07-29 06:00:00 TS 23.8081 80.7804 main 0 0 O________OP___ jtwc_io IO061952 23.8000 80.8000 -1 23.8000 80.8000 TC 25 23.8243 80.7413 1 7 270
1952209N22087 1952 45 NI BB NOT_NAMED 1952-07-29 09:00:00 TS 23.8043 80.3906 main 0 0 P________PP___ IO061952 23.7851 80.4074 -1 23.7851 80.4074 TC 25 23.8428 80.3572 1 7 271
1952209N22087 1952 45 NI BB NOT_NAMED 1952-07-29 12:00:00 TS 23.8216 79.9898 main 0 0 O________OP___ jtwc_io IO061952 23.8000 80.0000 -1 23.8000 80.0000 TC 25 23.8649 79.9694 1 7 277
1952209N22087 1952 45 NI BB NOT_NAMED 1952-07-29 15:00:00 TS 23.8949 79.6284 main 0 0 P________PO___ IO061952 23.8924 79.6426 -1 23.8924 79.6426 TC 25 23.9000 79.6000 1 7 284
1952209N22087 1952 45 NI BB NOT_NAMED 1952-07-29 18:00:00 TS 23.9868 79.2834 main 0 0 O________OP___ jtwc_io IO061952 24.0000 79.3000 -1 24.0000 79.3000 TC 25 23.9605 79.2502 1 7 283
1952209N22087 1952 45 NI BB NOT_NAMED 1952-07-29 21:00:00 TS 24.0450 78.9267 main 0 0 P________PP___ IO061952 24.0500 78.9274 -1 24.0500 78.9274 TC 25 24.0350 78.9252 1 6 281
1952209N22087 1952 45 NI BB NOT_NAMED 1952-07-30 00:00:00 TS 24.1056 78.6126 main 0 0 O________OP___ jtwc_io IO061952 24.1000 78.6000 -1 24.1000 78.6000 TC 25 24.1169 78.6377 1 5 287
1952209N22087 1952 45 NI BB NOT_NAMED 1952-07-30 03:00:00 TS 24.1999 78.3750 main 0 0 P________PO___ IO061952 24.1999 78.3625 -1 24.1999 78.3625 TC 25 24.2000 78.4000 1 4 297
1952209N22087 1952 45 NI BB NOT_NAMED 1952-07-30 06:00:00 TS 24.2929 78.2055 main 0 0 O________OP___ jtwc_io IO061952 24.3000 78.2000 -1 24.3000 78.2000 TC 25 24.2787 78.2164 1 3 300
1952209N22087 1952 45 NI BB NOT_NAMED 1952-07-30 09:00:00 TS 24.3523 78.0841 main 0 0 P________PP___ IO061952 24.3500 78.0849 -1 24.3500 78.0849 TC 25 24.3571 78.0824 1 2 301
1952209N22087 1952 45 NI AS NOT_NAMED 1952-07-30 12:00:00 TS 24.4107 77.9940 main 0 0 O________OP___ jtwc_io IO061952 24.4000 78.0000 -1 24.4000 78.0000 TC 25 24.4320 77.9821 1 2 311
1952209N22087 1952 45 NI AS NOT_NAMED 1952-07-30 15:00:00 TS 24.5000 77.8950 main 0 0 P________PO___ IO061952 24.5000 77.8925 -1 24.5000 77.8925 TC 25 24.5000 77.9000 1 2 316
1952209N22087 1952 45 NI AS NOT_NAMED 1952-07-30 18:00:00 TS 24.5836 77.8092 main 0 0 O________OP___ jtwc_io IO061952 24.6000 77.8000 -1 24.6000 77.8000 TC 25 24.5589 77.8229 1 2 315
1952209N22087 1952 45 NI AS NOT_NAMED 1952-07-30 21:00:00 TS 24.6401 77.7432 main 0 0 P________PP___ IO061952 24.6625 77.7400 -1 24.6625 77.7400 TC 25 24.6102 77.7476 1 1 310
1952209N22087 1952 45 NI AS NOT_NAMED 1952-07-31 00:00:00 TS 24.6782 77.6867 main 0 0 O________OP___ jtwc_io IO061952 24.7000 77.7000 -1 24.7000 77.7000 TC 25 24.6564 77.6735 1 1 295
1952209N22087 1952 45 NI AS NOT_NAMED 1952-07-31 03:00:00 NR 24.7000 77.6000 main 0 __________O___ IO061952 -1 TC 24.7000 77.6000 1 2 286

About IBTrACS Database

This database is a web-friendly format of International Best Track Archive for Climate Stewardship (IBTrACS), a global best track data archive curated by NOAA dating back to 1842.

Updated: 2021-12-08